createdAt,value
2023-01-17T00:00:51.862Z,10.50
2023-01-17T00:03:24.038Z,10.50
2023-01-17T00:06:10.969Z,9.80
2023-01-17T00:08:57.745Z,11.80
2023-01-17T00:11:25.870Z,10.60
2023-01-17T00:13:56.246Z,12.50
2023-01-17T00:16:24.382Z,11.80
2023-01-17T00:19:11.191Z,10.60
2023-01-17T00:21:58.356Z,12.20
2023-01-17T00:24:47.433Z,13.50
2023-01-17T00:27:15.616Z,10.30
2023-01-17T00:29:43.711Z,9.80
2023-01-17T00:32:11.847Z,10.80
2023-01-17T00:34:39.922Z,10.00
2023-01-17T00:37:08.176Z,11.90
2023-01-17T00:39:39.012Z,10.70
2023-01-17T00:42:07.059Z,11.50
2023-01-17T00:44:53.976Z,10.80
2023-01-17T00:47:40.846Z,7.40
2023-01-17T00:50:28.325Z,12.30
2023-01-17T00:53:15.205Z,10.20
2023-01-17T00:56:02.077Z,11.60
2023-01-17T00:58:48.979Z,12.10
2023-01-17T01:01:35.983Z,11.60
2023-01-17T01:04:25.636Z,13.00
2023-01-17T01:07:12.613Z,12.20
2023-01-17T01:09:59.568Z,11.20
2023-01-17T01:12:47.652Z,12.80
2023-01-17T01:15:34.630Z,11.20
2023-01-17T01:18:29.149Z,11.60
2023-01-17T01:21:21.551Z,11.10
2023-01-17T01:24:08.548Z,12.30
2023-01-17T01:26:55.594Z,10.90
2023-01-17T01:29:42.582Z,10.40
2023-01-17T01:32:29.468Z,10.80
2023-01-17T01:34:57.715Z,11.70
2023-01-17T01:37:25.878Z,9.40
2023-01-17T01:39:54.053Z,10.50
2023-01-17T01:42:22.228Z,12.60
2023-01-17T01:44:53.394Z,11.00
2023-01-17T01:47:37.676Z,11.50
2023-01-17T01:50:08.798Z,12.40
2023-01-17T01:52:51.330Z,10.80
2023-01-17T01:55:24.593Z,11.80
2023-01-17T01:57:58.476Z,10.70
2023-01-17T02:00:31.290Z,13.40
2023-01-17T02:03:05.364Z,10.10
2023-01-17T02:05:35.630Z,10.30
2023-01-17T02:08:08.108Z,11.30
2023-01-17T02:10:41.093Z,11.60
2023-01-17T02:13:10.703Z,13.30
2023-01-17T02:15:51.591Z,12.50
2023-01-17T02:19:05.915Z,11.10
2023-01-17T02:21:51.903Z,11.60
2023-01-17T02:24:38.364Z,12.60
2023-01-17T02:27:29.142Z,11.50
2023-01-17T02:30:25.571Z,10.90
2023-01-17T02:33:24.701Z,11.80
2023-01-17T02:36:10.705Z,10.50
2023-01-17T02:39:08.086Z,10.50
2023-01-17T02:41:41.666Z,10.80
2023-01-17T02:44:11.482Z,10.80
2023-01-17T02:46:48.333Z,11.40
2023-01-17T02:49:20.679Z,9.60
2023-01-17T02:52:20.299Z,10.80
2023-01-17T02:55:11.798Z,10.60
2023-01-17T02:58:05.495Z,10.50
2023-01-17T03:00:36.534Z,9.80
2023-01-17T03:03:41.861Z,9.90
2023-01-17T03:06:17.513Z,11.00
2023-01-17T03:08:48.616Z,10.90
2023-01-17T03:11:16.784Z,10.90
2023-01-17T03:13:45.058Z,11.50
2023-01-17T03:16:21.342Z,11.40
2023-01-17T03:18:49.636Z,11.60
2023-01-17T03:21:17.886Z,12.40
2023-01-17T03:23:46.098Z,13.20
2023-01-17T03:26:14.641Z,11.90
2023-01-17T03:28:42.865Z,11.90
2023-01-17T03:31:15.844Z,12.00
2023-01-17T03:33:44.226Z,14.60
2023-01-17T03:36:12.600Z,12.30
2023-01-17T03:38:43.239Z,11.60
2023-01-17T03:41:11.451Z,11.90
2023-01-17T03:43:42.235Z,13.40
2023-01-17T03:46:40.652Z,14.20
2023-01-17T03:49:11.400Z,11.80
2023-01-17T03:51:39.613Z,11.80
2023-01-17T03:54:08.027Z,12.60
2023-01-17T03:56:36.234Z,13.50
2023-01-17T03:59:04.427Z,11.40
2023-01-17T04:01:32.741Z,12.50
2023-01-17T04:04:01.211Z,12.10
2023-01-17T04:06:30.036Z,12.00
2023-01-17T04:08:58.172Z,12.20
2023-01-17T04:11:26.353Z,12.90
2023-01-17T04:13:55.531Z,12.80
2023-01-17T04:16:29.462Z,13.00
2023-01-17T04:18:57.930Z,10.70
2023-01-17T04:21:26.169Z,11.60
2023-01-17T04:23:54.389Z,11.60
2023-01-17T04:26:22.558Z,12.10
2023-01-17T04:28:50.720Z,12.40
2023-01-17T04:31:18.941Z,12.40
2023-01-17T04:33:47.211Z,14.50
2023-01-17T04:36:18.258Z,12.50
2023-01-17T04:38:46.520Z,14.20
2023-01-17T04:41:14.647Z,12.40
2023-01-17T04:43:42.826Z,15.00
2023-01-17T04:46:11.405Z,13.50
2023-01-17T04:48:39.552Z,10.50
2023-01-17T04:51:10.446Z,12.40
2023-01-17T04:53:38.880Z,12.60
2023-01-17T04:56:07.515Z,11.20
2023-01-17T04:58:35.683Z,13.50
2023-01-17T05:01:05.608Z,10.10
2023-01-17T05:03:34.862Z,11.40
2023-01-17T05:06:03.535Z,12.90
2023-01-17T05:08:31.863Z,15.90
2023-01-17T05:11:00.197Z,13.90
2023-01-17T05:13:28.332Z,12.40
2023-01-17T05:15:58.295Z,13.40
2023-01-17T05:18:26.616Z,12.80
2023-01-17T05:21:02.214Z,12.30
2023-01-17T05:23:33.305Z,12.60
2023-01-17T05:26:01.554Z,11.80
2023-01-17T05:28:29.699Z,12.60
2023-01-17T05:30:59.953Z,14.80
2023-01-17T05:33:28.345Z,13.80
2023-01-17T05:35:56.897Z,11.70
2023-01-17T05:38:25.076Z,12.10
2023-01-17T05:40:53.356Z,12.60
2023-01-17T05:43:22.981Z,11.50
2023-01-17T05:45:53.098Z,11.60
2023-01-17T05:48:21.421Z,13.70
2023-01-17T05:50:52.428Z,14.00
2023-01-17T05:53:20.734Z,14.80
2023-01-17T05:55:49.914Z,15.20
2023-01-17T05:58:20.995Z,18.20
2023-01-17T06:00:55.145Z,12.40
2023-01-17T06:03:23.338Z,12.30
2023-01-17T06:05:53.574Z,13.50
2023-01-17T06:08:23.655Z,14.70
2023-01-17T06:10:54.532Z,12.40
2023-01-17T06:13:23.347Z,12.20
2023-01-17T06:15:51.562Z,12.10
2023-01-17T06:18:19.991Z,12.10
2023-01-17T06:20:54.508Z,14.00
2023-01-17T06:23:23.928Z,11.60
2023-01-17T06:25:53.001Z,12.90
2023-01-17T06:28:24.624Z,11.80
2023-01-17T06:30:52.953Z,12.10
2023-01-17T06:33:22.127Z,12.10
2023-01-17T06:35:52.052Z,16.10
2023-01-17T06:38:21.143Z,14.30
2023-01-17T06:40:49.355Z,12.10
2023-01-17T06:43:17.635Z,11.40
2023-01-17T06:45:45.725Z,14.60
2023-01-17T06:48:14.078Z,9.80
2023-01-17T06:50:42.450Z,12.70
2023-01-17T06:53:10.749Z,12.00
2023-01-17T06:55:40.554Z,12.90
2023-01-17T06:58:09.915Z,11.20
2023-01-17T07:00:40.580Z,14.20
2023-01-17T07:03:24.666Z,18.10
2023-01-17T07:05:53.338Z,16.40
2023-01-17T07:08:21.645Z,13.30
2023-01-17T07:10:49.894Z,11.80
2023-01-17T07:13:18.093Z,13.30
2023-01-17T07:15:46.217Z,11.70
2023-01-17T07:18:14.928Z,12.80
2023-01-17T07:20:44.120Z,12.60
2023-01-17T07:23:13.164Z,13.00
2023-01-17T07:25:41.439Z,11.80
2023-01-17T07:28:09.798Z,11.30
2023-01-17T07:30:37.979Z,11.30
2023-01-17T07:33:06.238Z,12.90
2023-01-17T07:35:34.451Z,12.50
2023-01-17T07:38:03.345Z,10.00
2023-01-17T07:40:38.693Z,9.90
2023-01-17T07:43:16.869Z,13.20
2023-01-17T07:45:50.873Z,12.30
2023-01-17T07:50:56.179Z,12.20
2023-01-17T07:53:26.401Z,10.80
2023-01-17T07:56:02.920Z,10.30
2023-01-17T08:01:07.566Z,9.80
2023-01-17T08:03:40.301Z,8.50
2023-01-17T08:06:22.325Z,8.00
2023-01-17T08:08:51.119Z,9.40
2023-01-17T08:11:21.752Z,10.00
2023-01-17T08:13:50.210Z,8.00
2023-01-17T08:16:18.354Z,9.20
2023-01-17T08:18:46.519Z,8.60
2023-01-17T08:21:17.023Z,8.80
2023-01-17T08:23:51.726Z,9.20
2023-01-17T08:26:22.582Z,9.50
2023-01-17T08:29:01.399Z,8.20
2023-01-17T08:31:35.233Z,9.30
2023-01-17T08:34:05.743Z,10.00
2023-01-17T08:36:34.196Z,8.80
2023-01-17T08:39:02.403Z,10.20
2023-01-17T08:41:32.416Z,9.60
2023-01-17T08:44:00.868Z,8.60
2023-01-17T08:46:30.015Z,9.70
2023-01-17T08:49:03.021Z,11.10
2023-01-17T08:51:32.694Z,8.30
2023-01-17T08:54:00.827Z,9.90
2023-01-17T08:56:29.080Z,10.10
2023-01-17T08:58:57.221Z,11.90
2023-01-17T09:01:25.530Z,8.90
2023-01-17T09:03:54.235Z,9.00
2023-01-17T09:06:22.487Z,8.00
2023-01-17T09:08:52.561Z,7.50
2023-01-17T09:11:20.717Z,8.60
2023-01-17T09:13:49.493Z,8.80
2023-01-17T09:16:17.905Z,9.60
2023-01-17T09:18:46.112Z,8.80
2023-01-17T09:21:17.992Z,7.80
2023-01-17T09:23:48.472Z,8.90
2023-01-17T09:26:21.408Z,8.20
2023-01-17T09:28:50.391Z,8.60
2023-01-17T09:31:23.411Z,8.80
2023-01-17T09:33:52.365Z,8.30
2023-01-17T09:36:22.466Z,7.90
2023-01-17T09:38:55.647Z,7.60
2023-01-17T09:41:28.875Z,8.30
2023-01-17T09:44:06.913Z,10.00
2023-01-17T09:46:41.540Z,9.80
2023-01-17T09:49:34.885Z,12.50
2023-01-17T09:52:03.883Z,13.00
2023-01-17T09:54:40.303Z,8.20
2023-01-17T09:57:15.965Z,21.50
2023-01-17T10:00:14.483Z,18.20
2023-01-17T10:02:46.064Z,18.00
2023-01-17T10:05:33.307Z,9.90
2023-01-17T10:08:30.699Z,8.90
2023-01-17T10:11:35.066Z,7.10
2023-01-17T10:14:35.719Z,9.00
2023-01-17T10:17:22.233Z,9.00
2023-01-17T10:20:12.615Z,6.40
2023-01-17T10:22:56.146Z,6.40
2023-01-17T10:25:38.984Z,6.80
2023-01-17T10:28:17.625Z,6.40
2023-01-17T10:30:50.261Z,6.70
2023-01-17T10:33:28.993Z,6.70
2023-01-17T10:36:07.012Z,5.60
2023-01-17T10:38:37.995Z,6.10
2023-01-17T10:41:27.815Z,5.40
2023-01-17T10:44:00.741Z,6.00
2023-01-17T10:46:57.898Z,5.80
2023-01-17T10:49:28.587Z,6.10
2023-01-17T10:52:29.440Z,6.60
2023-01-17T10:55:26.657Z,7.00
2023-01-17T10:57:55.190Z,6.50
2023-01-17T11:00:52.064Z,6.10
2023-01-17T11:03:24.848Z,7.30
2023-01-17T11:06:20.113Z,6.80
2023-01-17T11:08:56.992Z,6.20
2023-01-17T11:11:32.198Z,8.20
2023-01-17T11:14:21.231Z,8.90
2023-01-17T11:17:01.592Z,6.10
2023-01-17T11:19:36.211Z,5.80
2023-01-17T11:22:07.491Z,6.40
2023-01-17T11:24:40.853Z,6.40
2023-01-17T11:27:24.706Z,7.50
2023-01-17T11:30:18.193Z,6.60
2023-01-17T11:33:09.531Z,6.40
2023-01-17T11:35:45.332Z,6.80
2023-01-17T11:38:22.545Z,5.80
2023-01-17T11:40:54.148Z,4.80
2023-01-17T11:43:26.121Z,5.70
2023-01-17T11:46:15.924Z,6.70
2023-01-17T11:48:56.142Z,7.30
2023-01-17T11:51:26.058Z,6.50
2023-01-17T11:54:03.789Z,5.00
2023-01-17T11:56:40.955Z,5.70
2023-01-17T11:59:25.144Z,5.70
2023-01-17T12:02:32.000Z,7.00
2023-01-17T12:05:19.284Z,6.20
2023-01-17T12:07:56.409Z,6.40
2023-01-17T12:10:48.172Z,6.00
2023-01-17T12:13:55.803Z,6.20
2023-01-17T12:16:40.328Z,5.40
2023-01-17T12:19:46.885Z,6.30
2023-01-17T12:22:27.431Z,6.10
2023-01-17T12:25:06.482Z,7.70
2023-01-17T12:28:05.966Z,8.50
2023-01-17T12:31:08.549Z,6.80
2023-01-17T12:33:43.922Z,7.10
2023-01-17T12:36:31.258Z,6.00
2023-01-17T12:39:03.867Z,5.90
2023-01-17T12:41:39.288Z,7.00
2023-01-17T12:44:14.053Z,8.10
2023-01-17T12:47:01.133Z,9.30
2023-01-17T12:49:35.755Z,7.40
2023-01-17T12:52:13.110Z,6.90
2023-01-17T12:54:52.658Z,8.60
2023-01-17T12:57:32.131Z,6.60
2023-01-17T13:00:12.345Z,5.80
2023-01-17T13:02:49.737Z,11.70
2023-01-17T13:05:29.917Z,7.60
2023-01-17T13:08:04.211Z,9.40
2023-01-17T13:10:38.383Z,5.90
2023-01-17T13:13:22.766Z,5.00
2023-01-17T13:15:55.381Z,5.20
2023-01-17T13:18:30.038Z,7.20
2023-01-17T13:21:30.472Z,7.70
2023-01-17T13:24:06.067Z,7.70
2023-01-17T13:27:17.323Z,7.90
2023-01-17T13:30:24.477Z,8.10
2023-01-17T13:32:58.398Z,6.20
2023-01-17T13:38:40.568Z,7.50
2023-01-17T13:41:32.865Z,6.10
2023-01-17T13:44:22.424Z,7.40
2023-01-17T13:47:04.663Z,11.60
2023-01-17T13:49:36.087Z,8.20
2023-01-17T13:52:12.731Z,11.30
2023-01-17T13:54:46.019Z,8.40
2023-01-17T13:57:23.488Z,10.20
2023-01-17T14:00:23.352Z,7.10
2023-01-17T14:02:55.367Z,7.30
2023-01-17T14:05:38.953Z,8.10
2023-01-17T14:08:14.392Z,9.10
2023-01-17T14:10:49.056Z,12.10
2023-01-17T14:13:38.618Z,11.00
2023-01-17T14:16:22.490Z,12.30
2023-01-17T14:18:50.916Z,9.80
2023-01-17T14:21:35.728Z,10.00
2023-01-17T14:24:13.337Z,9.00
2023-01-17T14:26:46.478Z,8.70
2023-01-17T14:29:46.135Z,10.30
2023-01-17T14:32:27.270Z,5.60
2023-01-17T14:34:57.408Z,6.50
2023-01-17T14:37:51.221Z,8.10
2023-01-17T14:40:30.854Z,7.50
2023-01-17T14:43:04.647Z,6.40
2023-01-17T14:45:36.758Z,8.00
2023-01-17T14:48:07.469Z,9.30
2023-01-17T14:50:40.725Z,10.70
2023-01-17T14:53:12.108Z,10.50
2023-01-17T14:55:49.346Z,11.50
2023-01-17T14:58:19.671Z,14.60
2023-01-17T15:00:50.368Z,13.70
2023-01-17T15:03:18.667Z,16.90
2023-01-17T15:05:50.561Z,14.30
2023-01-17T15:08:21.588Z,13.60
2023-01-17T15:10:57.307Z,10.40
2023-01-17T15:13:43.914Z,10.20
2023-01-17T15:16:25.061Z,10.90
2023-01-17T15:18:57.523Z,10.60
2023-01-17T15:21:42.703Z,15.00
2023-01-17T15:24:22.112Z,15.10
2023-01-17T15:26:50.567Z,16.80
2023-01-17T15:29:28.489Z,17.50
2023-01-17T15:31:59.228Z,18.40
2023-01-17T15:34:39.079Z,12.70
2023-01-17T15:37:22.664Z,12.10
2023-01-17T15:39:51.285Z,13.70
2023-01-17T15:42:31.602Z,17.50
2023-01-17T15:45:15.802Z,21.80
2023-01-17T15:47:54.295Z,24.00
2023-01-17T15:50:30.904Z,23.80
2023-01-17T15:53:06.187Z,22.90
2023-01-17T15:55:37.248Z,11.50
2023-01-17T15:58:23.266Z,9.70
2023-01-17T16:00:51.823Z,10.50
2023-01-17T16:03:20.034Z,12.60
2023-01-17T16:05:50.070Z,10.60
2023-01-17T16:08:29.582Z,11.30
2023-01-17T16:11:02.586Z,8.30
2023-01-17T16:13:43.578Z,8.50
2023-01-17T16:16:15.016Z,10.80
2023-01-17T16:18:44.016Z,17.00
2023-01-17T16:21:18.920Z,15.00
2023-01-17T16:23:47.808Z,15.90
2023-01-17T16:26:17.589Z,13.90
2023-01-17T16:28:48.823Z,15.70
2023-01-17T16:31:18.148Z,19.40
2023-01-17T16:33:49.073Z,15.80
2023-01-17T16:36:17.867Z,13.60
2023-01-17T16:38:51.578Z,13.40
2023-01-17T16:41:20.657Z,15.00
2023-01-17T16:44:02.129Z,14.50
2023-01-17T16:46:30.587Z,17.80
2023-01-17T16:49:02.130Z,16.60
2023-01-17T16:51:31.213Z,14.60
2023-01-17T16:54:00.917Z,17.60
2023-01-17T16:56:29.243Z,25.40
2023-01-17T16:58:59.018Z,23.40
2023-01-17T17:01:27.379Z,15.20
2023-01-17T17:03:55.719Z,12.00
2023-01-17T17:06:23.933Z,18.50
2023-01-17T17:08:52.253Z,24.80
2023-01-17T17:11:23.462Z,21.50
2023-01-17T17:13:52.396Z,18.90
2023-01-17T17:16:24.171Z,19.20
2023-01-17T17:19:00.407Z,20.50
2023-01-17T17:24:01.471Z,19.70
2023-01-17T17:26:36.601Z,21.50
2023-01-17T17:29:05.845Z,19.80
2023-01-17T17:31:34.204Z,17.20
2023-01-17T17:34:07.507Z,17.80
2023-01-17T17:36:36.528Z,16.90
2023-01-17T17:39:09.308Z,14.10
2023-01-17T17:41:40.807Z,10.70
2023-01-17T17:44:12.313Z,11.70
2023-01-17T17:46:42.333Z,17.40
2023-01-17T17:49:12.981Z,10.20
2023-01-17T17:51:41.167Z,31.20
2023-01-17T17:54:14.137Z,38.30
2023-01-17T17:56:46.661Z,46.40
2023-01-17T17:59:18.487Z,21.90
2023-01-17T18:01:47.090Z,15.70
2023-01-17T18:04:17.534Z,10.80
2023-01-17T18:06:46.231Z,9.30
2023-01-17T18:09:14.584Z,8.80
2023-01-17T18:11:44.386Z,10.20
2023-01-17T18:14:14.769Z,10.40
2023-01-17T18:16:45.247Z,12.30
2023-01-17T18:19:16.999Z,13.40
2023-01-17T18:21:45.643Z,12.10
2023-01-17T18:24:20.144Z,16.50
2023-01-17T18:26:53.618Z,12.40
2023-01-17T18:29:25.620Z,13.50
2023-01-17T18:31:55.354Z,19.20
2023-01-17T18:34:28.662Z,16.50
2023-01-17T18:36:57.937Z,19.50
2023-01-17T18:39:28.911Z,15.50
2023-01-17T18:41:57.550Z,21.30
2023-01-17T18:44:27.475Z,23.80
2023-01-17T18:46:58.277Z,19.60
2023-01-17T18:49:26.489Z,20.60
2023-01-17T18:51:57.351Z,18.40
2023-01-17T18:54:28.067Z,37.70
2023-01-17T18:56:56.848Z,31.60
2023-01-17T18:59:25.949Z,55.40
2023-01-17T19:01:54.312Z,23.20
2023-01-17T19:04:22.697Z,25.10
2023-01-17T19:06:51.447Z,18.00
2023-01-17T19:09:19.718Z,15.10
2023-01-17T19:11:47.938Z,16.30
2023-01-17T19:14:16.391Z,18.00
2023-01-17T19:16:45.141Z,20.00
2023-01-17T19:19:16.070Z,18.80
2023-01-17T19:21:48.364Z,15.90
2023-01-17T19:24:18.236Z,17.80
2023-01-17T19:26:47.902Z,16.00
2023-01-17T19:29:27.026Z,16.40
2023-01-17T19:31:55.239Z,13.80
2023-01-17T19:34:26.087Z,17.90
2023-01-17T19:36:55.745Z,14.10
2023-01-17T19:39:26.355Z,10.90
2023-01-17T19:41:54.571Z,10.60
2023-01-17T19:44:22.803Z,12.00
2023-01-17T19:46:50.999Z,9.80
2023-01-17T19:49:24.912Z,11.90
2023-01-17T19:51:53.163Z,10.40
2023-01-17T19:54:21.472Z,10.10
2023-01-17T19:56:49.579Z,12.50
2023-01-17T19:59:20.435Z,12.50
2023-01-17T20:02:02.752Z,11.60
2023-01-17T20:04:31.071Z,12.20
2023-01-17T20:06:59.267Z,11.00
2023-01-17T20:09:27.459Z,12.60
2023-01-17T20:11:58.421Z,15.90
2023-01-17T20:14:27.032Z,12.60
2023-01-17T20:16:55.269Z,11.20
2023-01-17T20:19:25.453Z,10.70
2023-01-17T20:21:55.548Z,10.80
2023-01-17T20:24:24.421Z,10.80
2023-01-17T20:26:52.868Z,13.00
2023-01-17T20:29:21.015Z,10.20
2023-01-17T20:31:52.771Z,11.10
2023-01-17T20:34:21.673Z,10.90
2023-01-17T20:36:49.968Z,10.90
2023-01-17T20:39:19.825Z,11.30
2023-01-17T20:41:49.977Z,11.70
2023-01-17T20:44:19.875Z,12.60
2023-01-17T20:46:48.425Z,12.10
2023-01-17T20:49:19.499Z,10.10
2023-01-17T20:51:49.323Z,10.30
2023-01-17T20:54:18.737Z,9.30
2023-01-17T20:56:47.980Z,9.80
2023-01-17T20:59:21.764Z,10.40
2023-01-17T21:01:54.378Z,10.00
2023-01-17T21:04:26.163Z,12.30
2023-01-17T21:06:55.537Z,10.20
2023-01-17T21:09:23.811Z,10.90
2023-01-17T21:11:52.681Z,11.30
2023-01-17T21:14:21.885Z,12.60
2023-01-17T21:16:50.658Z,11.80
2023-01-17T21:19:21.403Z,11.10
2023-01-17T21:21:50.333Z,11.10
2023-01-17T21:24:19.810Z,11.60
2023-01-17T21:26:49.806Z,10.50
2023-01-17T21:29:18.069Z,9.60
2023-01-17T21:31:50.370Z,10.20
2023-01-17T21:34:18.538Z,9.60
2023-01-17T21:36:46.857Z,10.20
2023-01-17T21:39:20.086Z,9.40
2023-01-17T21:41:51.005Z,8.60
2023-01-17T21:44:23.180Z,10.10
2023-01-17T21:46:56.478Z,8.70
2023-01-17T21:49:24.872Z,9.20
2023-01-17T21:51:53.095Z,9.30
2023-01-17T21:54:44.516Z,10.40
2023-01-17T21:57:34.662Z,11.20
2023-01-17T22:00:06.608Z,9.90
2023-01-17T22:02:41.186Z,9.80
2023-01-17T22:05:18.238Z,11.80
2023-01-17T22:08:11.521Z,9.80
2023-01-17T22:10:46.676Z,9.60
2023-01-17T22:13:17.669Z,10.00
2023-01-17T22:15:46.339Z,10.60
2023-01-17T22:18:15.494Z,10.50
2023-01-17T22:20:43.756Z,10.40
2023-01-17T22:23:12.191Z,9.20
2023-01-17T22:25:40.555Z,9.50
2023-01-17T22:28:08.762Z,9.80
2023-01-17T22:30:38.447Z,10.70
2023-01-17T22:33:06.692Z,9.30
2023-01-17T22:35:34.891Z,9.80
2023-01-17T22:38:03.103Z,8.90
2023-01-17T22:40:32.859Z,10.40
2023-01-17T22:43:01.053Z,9.50
2023-01-17T22:45:29.268Z,8.40
2023-01-17T22:48:00.112Z,9.70
2023-01-17T22:50:28.261Z,10.20
2023-01-17T22:52:56.665Z,10.70
2023-01-17T22:55:25.140Z,10.80
2023-01-17T22:57:53.446Z,9.80
2023-01-17T23:00:21.770Z,8.60
2023-01-17T23:02:49.944Z,9.70
2023-01-17T23:05:18.213Z,9.90
2023-01-17T23:07:50.061Z,8.20
2023-01-17T23:10:38.245Z,10.20
2023-01-17T23:13:10.060Z,8.50
2023-01-17T23:15:57.524Z,10.60
2023-01-17T23:18:45.611Z,10.80
2023-01-17T23:21:13.785Z,11.00
2023-01-17T23:23:42.002Z,9.20
2023-01-17T23:26:10.166Z,10.10
2023-01-17T23:28:38.357Z,10.20
2023-01-17T23:31:08.921Z,9.50
2023-01-17T23:33:37.152Z,9.20
2023-01-17T23:36:09.440Z,8.90
2023-01-17T23:38:40.878Z,9.40
2023-01-17T23:41:30.362Z,9.90
2023-01-17T23:43:59.199Z,10.60
2023-01-17T23:46:30.479Z,9.20
2023-01-17T23:48:58.824Z,8.80
2023-01-17T23:51:27.040Z,9.10
2023-01-17T23:54:05.589Z,10.40
2023-01-17T23:56:33.909Z,9.10
2023-01-17T23:59:02.208Z,10.00
